Time;durP1;ratioP1;P1;durP2;ratioP2;P2;SDS_P1;SDS_P2;PMS_P1;PMS_P2;Temp;Humidity;BMP_temperature;BMP_pressure;BME280_temperature;BME280_humidity;BME280_pressure;Samples;Min_cycle;Max_cycle;Signal;HPM_P1;HPM_P2
2022/08/07 00:00:23;;;;;;;7.25;5.78;;;14.10;97.10;;;;;;5043100;28;20058;-60
2022/08/07 00:02:49;;;;;;;7.47;5.88;;;14.00;97.40;;;;;;5031682;28;20120;-61
2022/08/07 00:05:14;;;;;;;7.07;5.78;;;14.00;97.40;;;;;;5049648;28;20049;-60
2022/08/07 00:07:40;;;;;;;6.25;5.28;;;14.00;97.70;;;;;;5048839;28;20098;-60
2022/08/07 00:10:06;;;;;;;6.72;5.35;;;13.90;97.50;;;;;;5049205;28;20108;-60
2022/08/07 00:12:32;;;;;;;6.40;4.97;;;13.90;97.50;;;;;;5050100;28;20111;-60
2022/08/07 00:14:58;;;;;;;7.30;5.22;;;13.80;97.20;;;;;;5051388;28;20119;-60
2022/08/07 00:17:23;;;;;;;5.78;5.18;;;13.90;97.10;;;;;;5016856;28;20052;-60
2022/08/07 00:19:49;;;;;;;5.75;4.95;;;13.80;97.20;;;;;;5042011;28;20087;-60
2022/08/07 00:22:15;;;;;;;10.90;5.90;;;13.80;97.10;;;;;;5043939;28;20061;-60
2022/08/07 00:24:41;;;;;;;6.97;5.22;;;13.80;97.20;;;;;;5015360;28;20479;-60
2022/08/07 00:27:07;;;;;;;5.60;4.85;;;13.80;97.40;;;;;;5033967;28;20040;-59
2022/08/07 00:29:33;;;;;;;5.80;4.93;;;13.80;97.40;;;;;;5049662;28;20050;-60
2022/08/07 00:32:00;;;;;;;6.05;4.80;;;13.80;97.50;;;;;;5015749;28;20047;-60
2022/08/07 00:34:26;;;;;;;6.25;5.20;;;13.70;97.30;;;;;;5049731;28;20045;-61
2022/08/07 00:36:52;;;;;;;7.28;5.03;;;13.70;97.30;;;;;;5050151;28;20052;-60
2022/08/07 00:39:18;;;;;;;6.10;4.72;;;13.70;97.50;;;;;;5031718;28;20052;-60
2022/08/07 00:42:02;;;;;;;9.15;5.90;;;13.70;97.70;;;;;;5052876;28;20051;-60
2022/08/07 00:44:28;;;;;;;8.25;5.88;;;13.60;98.00;;;;;;5016040;28;20048;-59
2022/08/07 00:46:54;;;;;;;7.30;6.03;;;13.60;98.40;;;;;;5050400;28;20063;-60
2022/08/07 00:49:20;;;;;;;6.05;5.25;;;13.60;98.80;;;;;;5041332;28;20166;-60
2022/08/07 00:51:46;;;;;;;5.43;4.85;;;13.50;99.00;;;;;;5048168;28;20040;-60
2022/08/07 00:54:15;;;;;;;7.97;5.60;;;13.50;98.80;;;;;;5032975;28;20052;-59
2022/08/07 00:56:41;;;;;;;6.93;5.50;;;13.50;98.90;;;;;;5049996;28;20040;-60
2022/08/07 00:59:07;;;;;;;7.30;5.65;;;13.40;99.10;;;;;;5030804;28;20052;-60
2022/08/07 01:01:33;;;;;;;7.70;5.57;;;13.40;99.20;;;;;;5043135;28;20045;-60
2022/08/07 01:04:03;;;;;;;5.85;5.18;;;13.40;99.40;;;;;;5047500;28;20084;-60
2022/08/07 01:06:29;;;;;;;6.20;5.50;;;13.40;99.40;;;;;;5035329;28;20045;-60
2022/08/07 01:08:57;;;;;;;5.30;4.80;;;13.30;99.60;;;;;;5013851;28;20060;-60
2022/08/07 01:11:23;;;;;;;5.85;4.68;;;13.20;99.70;;;;;;5049644;28;20526;-60
2022/08/07 01:13:49;;;;;;;7.07;5.60;;;13.20;99.70;;;;;;5029463;28;20098;-60
2022/08/07 01:16:15;;;;;;;7.90;6.00;;;13.20;99.90;;;;;;5048451;28;20048;-60
2022/08/07 01:18:40;;;;;;;7.43;6.07;;;13.10;99.90;;;;;;5032053;28;20053;-60
2022/08/07 01:21:15;;;;;;;7.95;6.45;;;13.10;99.90;;;;;;5042711;28;20041;-61
2022/08/07 01:23:43;;;;;;;8.52;6.25;;;13.10;99.90;;;;;;5047298;28;20061;-60
2022/08/07 01:26:12;;;;;;;8.70;6.75;;;13.00;99.90;;;;;;5050033;28;20479;-60
2022/08/07 01:28:40;;;;;;;8.70;6.93;;;13.00;99.90;;;;;;5048148;28;20403;-60
2022/08/07 01:31:06;;;;;;;8.30;6.60;;;13.00;99.90;;;;;;5048875;28;20099;-60
2022/08/07 01:33:32;;;;;;;7.95;6.68;;;13.00;99.90;;;;;;5050137;28;20410;-60
2022/08/07 01:35:59;;;;;;;7.72;6.22;;;12.90;99.90;;;;;;5048728;28;20049;-60
2022/08/07 01:38:25;;;;;;;7.32;6.22;;;12.90;99.90;;;;;;5030336;28;20049;-59
2022/08/07 01:40:57;;;;;;;7.88;6.60;;;12.90;99.90;;;;;;5049466;28;20074;-60
2022/08/07 01:43:24;;;;;;;7.72;5.65;;;12.80;99.90;;;;;;5050615;28;20102;-60
2022/08/07 01:45:51;;;;;;;7.60;6.20;;;12.80;99.90;;;;;;5031626;28;20517;-61
2022/08/07 01:48:17;;;;;;;7.97;5.80;;;12.80;99.90;;;;;;5049358;28;20061;-61
2022/08/07 01:50:49;;;;;;;6.88;5.63;;;12.70;99.90;;;;;;5014095;28;20048;-60
2022/08/07 01:53:18;;;;;;;7.18;6.03;;;12.70;99.90;;;;;;5050059;28;20447;-60
2022/08/07 01:55:48;;;;;;;7.00;5.90;;;12.70;99.90;;;;;;5046061;28;20041;-60
2022/08/07 01:58:20;;;;;;;8.40;5.75;;;12.70;99.90;;;;;;5030556;28;20439;-60
2022/08/07 02:00:52;;;;;;;7.30;5.88;;;12.60;99.90;;;;;;5049590;28;20075;-61
2022/08/07 02:03:20;;;;;;;6.00;5.18;;;12.60;99.90;;;;;;5031204;28;20052;-61
2022/08/07 02:05:56;;;;;;;6.88;5.15;;;12.60;99.90;;;;;;5049346;28;20071;-60
2022/08/07 02:08:24;;;;;;;9.48;6.65;;;12.60;99.90;;;;;;5048763;28;20406;-60
2022/08/07 02:10:52;;;;;;;8.18;6.65;;;12.60;99.90;;;;;;5030558;28;20487;-59
2022/08/07 02:13:24;;;;;;;9.98;6.88;;;12.60;99.90;;;;;;5048576;28;20167;-59
2022/08/07 02:15:51;;;;;;;9.85;6.88;;;12.60;99.90;;;;;;5048952;28;20071;-60
2022/08/07 02:18:18;;;;;;;10.95;7.13;;;12.60;99.90;;;;;;5049592;28;20053;-60
2022/08/07 02:20:47;;;;;;;8.50;6.82;;;12.70;99.90;;;;;;5050587;28;20061;-60
2022/08/07 02:23:15;;;;;;;9.40;7.00;;;12.70;99.90;;;;;;5048068;28;20482;-60
2022/08/07 02:25:42;;;;;;;9.65;6.97;;;12.70;99.90;;;;;;5053167;28;20032;-60
2022/08/07 02:28:10;;;;;;;8.68;6.85;;;12.70;99.90;;;;;;5053333;28;20502;-60
2022/08/07 02:30:37;;;;;;;8.15;7.22;;;12.70;99.90;;;;;;5052138;28;20491;-61
2022/08/07 02:33:04;;;;;;;8.32;6.35;;;12.70;99.90;;;;;;5051658;28;20045;-60
2022/08/07 02:35:32;;;;;;;8.52;6.43;;;12.70;99.90;;;;;;5020750;28;20045;-60
2022/08/07 02:38:01;;;;;;;9.85;7.18;;;12.70;99.90;;;;;;5050293;28;20049;-59
2022/08/07 02:40:28;;;;;;;7.85;6.80;;;12.70;99.90;;;;;;5052844;28;20494;-61
2022/08/07 02:42:55;;;;;;;10.60;7.28;;;12.60;99.90;;;;;;5052008;28;20614;-60
2022/08/07 02:45:23;;;;;;;11.77;7.28;;;12.60;99.90;;;;;;5051643;28;20124;-61
2022/08/07 02:47:49;;;;;;;9.27;7.35;;;12.60;99.90;;;;;;5033166;28;20517;-60
2022/08/07 02:50:15;;;;;;;9.20;7.40;;;12.50;99.90;;;;;;5051110;28;20179;-60
2022/08/07 02:52:51;;;;;;;11.18;7.30;;;12.50;99.90;;;;;;5050629;28;20048;-60
2022/08/07 02:55:20;;;;;;;8.73;6.85;;;12.50;99.90;;;;;;5051097;28;20044;-60
2022/08/07 02:57:47;;;;;;;11.23;6.70;;;12.40;99.90;;;;;;5053091;28;20522;-60
2022/08/07 03:00:14;;;;;;;9.07;6.43;;;12.40;99.90;;;;;;5051239;28;20049;-60
2022/08/07 03:02:44;;;;;;;8.63;6.28;;;12.30;99.90;;;;;;5034537;28;20051;-60
2022/08/07 03:05:10;;;;;;;9.18;7.45;;;12.30;99.90;;;;;;5051528;28;20060;-60
2022/08/07 03:07:37;;;;;;;7.40;6.25;;;12.20;99.90;;;;;;5032033;28;20487;-60
2022/08/07 03:10:04;;;;;;;8.85;6.53;;;12.20;99.90;;;;;;5043190;28;20074;-60
2022/08/07 03:12:32;;;;;;;9.05;6.72;;;12.20;99.90;;;;;;5050636;28;20040;-60
2022/08/07 03:14:59;;;;;;;9.40;6.93;;;12.20;99.90;;;;;;5032325;28;20531;-60
2022/08/07 03:17:25;;;;;;;9.10;6.40;;;12.20;99.90;;;;;;5050555;28;20499;-61
2022/08/07 03:19:52;;;;;;;9.50;6.88;;;12.20;99.90;;;;;;5042742;28;20082;-60
2022/08/07 03:22:20;;;;;;;11.60;7.18;;;12.20;99.90;;;;;;5053164;28;20076;-60
2022/08/07 03:24:47;;;;;;;8.32;6.60;;;12.20;99.90;;;;;;5044566;28;21077;-59
2022/08/07 03:27:14;;;;;;;8.27;6.32;;;12.20;99.90;;;;;;5051851;28;20045;-60
2022/08/07 03:29:49;;;;;;;8.82;6.57;;;12.20;99.90;;;;;;5049676;28;20041;-59
2022/08/07 03:32:17;;;;;;;10.05;6.93;;;12.20;99.90;;;;;;5036707;28;20049;-60
2022/08/07 03:34:47;;;;;;;9.43;6.65;;;12.20;99.90;;;;;;5042996;28;20141;-60
2022/08/07 03:37:16;;;;;;;6.85;5.53;;;12.10;99.90;;;;;;5052649;28;20048;-60
2022/08/07 03:39:43;;;;;;;9.25;6.82;;;12.10;99.90;;;;;;5044845;28;20084;-60
2022/08/07 03:42:10;;;;;;;8.15;6.38;;;12.10;99.90;;;;;;5049187;28;20051;-60
2022/08/07 03:44:37;;;;;;;9.05;6.93;;;12.10;99.90;;;;;;5029552;28;20052;-60
2022/08/07 03:47:05;;;;;;;7.60;6.28;;;12.10;99.90;;;;;;5050472;28;20067;-60
2022/08/07 03:49:32;;;;;;;8.10;6.85;;;12.10;99.90;;;;;;5032307;28;20127;-60
2022/08/07 03:51:59;;;;;;;9.73;6.90;;;12.10;99.90;;;;;;5051183;28;20045;-60
2022/08/07 03:54:25;;;;;;;11.38;6.85;;;12.10;99.90;;;;;;5009747;28;20526;-60
2022/08/07 03:56:53;;;;;;;9.25;6.82;;;12.10;99.90;;;;;;5050259;28;20045;-60
2022/08/07 03:59:19;;;;;;;8.43;6.53;;;12.10;99.90;;;;;;5033316;28;20205;-60
2022/08/07 04:01:45;;;;;;;8.68;6.43;;;12.00;99.90;;;;;;5049665;28;20045;-60
2022/08/07 04:04:12;;;;;;;10.07;7.70;;;12.00;99.90;;;;;;5047760;28;20087;-60
2022/08/07 04:06:42;;;;;;;7.93;6.55;;;12.00;99.90;;;;;;5032302;28;20543;-60
2022/08/07 04:09:10;;;;;;;10.18;6.97;;;12.00;99.90;;;;;;5016014;28;20055;-60
2022/08/07 04:11:36;;;;;;;8.82;7.22;;;12.00;99.90;;;;;;5031780;28;20045;-60
2022/08/07 04:14:03;;;;;;;8.63;7.05;;;12.00;99.90;;;;;;5049710;28;20048;-60
2022/08/07 04:16:29;;;;;;;9.32;7.15;;;12.00;99.90;;;;;;5049799;28;20444;-60
2022/08/07 04:18:55;;;;;;;9.57;6.65;;;12.00;99.90;;;;;;5049248;28;20082;-60
2022/08/07 04:21:21;;;;;;;11.02;7.70;;;12.00;99.90;;;;;;5032497;28;20048;-60
2022/08/07 04:23:48;;;;;;;8.50;6.60;;;12.00;99.90;;;;;;5042282;28;20048;-60
2022/08/07 04:26:15;;;;;;;8.40;6.50;;;12.00;99.90;;;;;;5049397;28;20041;-60
2022/08/07 04:28:41;;;;;;;7.43;6.45;;;11.90;99.90;;;;;;5050595;28;20363;-60
2022/08/07 04:31:08;;;;;;;8.75;6.82;;;11.90;99.90;;;;;;5034246;28;20498;-60
2022/08/07 04:33:35;;;;;;;7.88;6.13;;;11.90;99.90;;;;;;5050413;28;20862;-61
2022/08/07 04:36:03;;;;;;;11.93;7.40;;;11.90;99.90;;;;;;5031734;28;20095;-60
2022/08/07 04:38:29;;;;;;;9.07;6.43;;;11.90;99.90;;;;;;5049106;28;20037;-60
2022/08/07 04:40:54;;;;;;;8.60;7.05;;;11.90;99.90;;;;;;5047275;28;20045;-60
2022/08/07 04:43:26;;;;;;;10.88;6.47;;;11.90;99.90;;;;;;5033129;28;20041;-60
2022/08/07 04:46:05;;;;;;;12.32;6.90;;;11.90;99.90;;;;;;5030879;28;20103;-59
2022/08/07 04:48:36;;;;;;;7.80;6.57;;;11.90;99.90;;;;;;5049291;28;20075;-60
2022/08/07 04:51:02;;;;;;;10.75;6.90;;;11.90;99.90;;;;;;5034159;28;20049;-60
2022/08/07 04:53:45;;;;;;;7.68;6.05;;;11.90;99.90;;;;;;5049927;28;20359;-60
2022/08/07 04:56:20;;;;;;;9.60;6.55;;;12.00;99.90;;;;;;5041554;28;20549;-60
2022/08/07 04:58:52;;;;;;;8.70;6.55;;;12.00;99.90;;;;;;5040976;28;20049;-59
2022/08/07 05:01:43;;;;;;;9.50;6.53;;;12.00;99.90;;;;;;5042453;28;20064;-60
2022/08/07 05:04:27;;;;;;;9.60;6.25;;;12.10;99.90;;;;;;5047176;28;20049;-60
2022/08/07 05:07:05;;;;;;;9.15;5.93;;;12.10;99.90;;;;;;5026079;28;20102;-60
2022/08/07 05:10:05;;;;;;;10.02;6.95;;;12.20;99.90;;;;;;5051322;28;20044;-60
2022/08/07 05:12:46;;;;;;;9.93;6.38;;;12.20;99.90;;;;;;5043042;28;20056;-60
2022/08/07 05:15:27;;;;;;;9.73;6.40;;;12.30;99.90;;;;;;5049986;28;20469;-60
2022/08/07 05:18:06;;;;;;;8.63;6.38;;;12.30;99.90;;;;;;5016505;28;20052;-59
2022/08/07 05:20:56;;;;;;;14.00;6.90;;;12.30;99.90;;;;;;5046600;28;20068;-59
2022/08/07 05:23:26;;;;;;;13.75;7.18;;;12.40;99.90;;;;;;5051443;28;20048;-60
2022/08/07 05:25:53;;;;;;;12.52;6.38;;;12.50;99.90;;;;;;5046954;28;20053;-60
2022/08/07 05:28:20;;;;;;;11.52;7.05;;;12.50;99.90;;;;;;5032646;28;20339;-60
2022/08/07 05:30:47;;;;;;;9.90;6.72;;;12.50;99.90;;;;;;5030023;28;20040;-60
2022/08/07 05:33:14;;;;;;;10.90;7.20;;;12.60;99.90;;;;;;5046640;28;20090;-60
2022/08/07 05:35:42;;;;;;;9.55;7.00;;;12.70;99.90;;;;;;5031418;28;20093;-60
2022/08/07 05:38:10;;;;;;;12.90;6.45;;;12.70;99.90;;;;;;5047988;28;20197;-60
2022/08/07 05:40:37;;;;;;;9.05;7.05;;;12.80;99.90;;;;;;5030819;28;20103;-60
2022/08/07 05:43:04;;;;;;;8.73;6.28;;;12.80;99.90;;;;;;5029574;28;20521;-60
2022/08/07 05:45:30;;;;;;;11.10;6.75;;;12.90;99.90;;;;;;5024772;28;20292;-60
2022/08/07 05:47:57;;;;;;;12.73;6.72;;;12.90;99.90;;;;;;5030113;28;20063;-60
2022/08/07 05:50:23;;;;;;;8.80;5.97;;;13.00;99.90;;;;;;5047106;28;20078;-60
2022/08/07 05:52:49;;;;;;;9.45;6.85;;;13.10;99.90;;;;;;5048952;28;20037;-60
2022/08/07 05:55:15;;;;;;;9.60;7.00;;;13.10;99.90;;;;;;5029714;28;20045;-61
2022/08/07 05:57:44;;;;;;;9.45;6.68;;;13.20;99.90;;;;;;5051174;28;20118;-60
2022/08/07 06:00:11;;;;;;;10.93;6.97;;;13.30;99.90;;;;;;5051618;28;20048;-60
2022/08/07 06:02:38;;;;;;;9.52;6.80;;;13.40;99.90;;;;;;5054151;28;20045;-60
2022/08/07 06:05:12;;;;;;;10.50;6.47;;;13.40;99.90;;;;;;5034418;28;20516;-61
2022/08/07 06:07:39;;;;;;;8.35;6.55;;;13.50;99.90;;;;;;5051210;28;20040;-60
2022/08/07 06:10:08;;;;;;;9.95;6.68;;;13.60;99.90;;;;;;5037193;28;20106;-60
2022/08/07 06:12:34;;;;;;;14.25;7.20;;;13.60;99.90;;;;;;5043596;28;20055;-60
2022/08/07 06:15:01;;;;;;;9.10;6.47;;;13.70;99.90;;;;;;5012463;28;20045;-60
2022/08/07 06:17:27;;;;;;;9.38;6.25;;;13.80;99.90;;;;;;5034861;28;20052;-60
2022/08/07 06:19:55;;;;;;;8.10;6.40;;;13.90;99.90;;;;;;5044343;28;20582;-60
2022/08/07 06:22:22;;;;;;;9.05;6.43;;;14.00;99.90;;;;;;5050993;28;20040;-60
2022/08/07 06:24:48;;;;;;;8.93;6.05;;;14.10;99.90;;;;;;5027218;28;20045;-60
2022/08/07 06:27:24;;;;;;;10.98;6.22;;;14.20;99.90;;;;;;5031890;28;20059;-60
2022/08/07 06:29:50;;;;;;;8.10;5.55;;;14.30;99.90;;;;;;5050867;28;20155;-61
2022/08/07 06:32:16;;;;;;;8.77;5.28;;;14.40;99.90;;;;;;5051396;28;20471;-60
2022/08/07 06:34:42;;;;;;;7.38;5.40;;;14.40;99.90;;;;;;5033212;28;20095;-61
2022/08/07 06:37:08;;;;;;;8.52;5.68;;;14.50;99.90;;;;;;5034613;28;20045;-61
2022/08/07 06:39:34;;;;;;;6.60;5.28;;;14.60;99.90;;;;;;5025471;28;20445;-60
2022/08/07 06:42:06;;;;;;;9.27;5.28;;;14.70;99.90;;;;;;5052823;28;20044;-60
2022/08/07 06:44:33;;;;;;;8.80;5.40;;;14.90;99.90;;;;;;5051022;28;20044;-61
2022/08/07 06:46:59;;;;;;;6.75;5.07;;;15.00;99.90;;;;;;5047446;28;20060;-61
2022/08/07 06:49:25;;;;;;;7.05;5.43;;;15.10;99.90;;;;;;5034564;28;20616;-61
2022/08/07 06:51:53;;;;;;;6.88;5.30;;;15.20;99.90;;;;;;5035075;28;20041;-60
2022/08/07 06:54:20;;;;;;;9.18;5.35;;;15.30;99.90;;;;;;5030566;28;20048;-60
2022/08/07 06:56:49;;;;;;;10.05;5.55;;;15.50;99.90;;;;;;4997793;28;20049;-60
2022/08/07 06:59:22;;;;;;;8.40;5.13;;;15.60;99.90;;;;;;5013028;28;20131;-60
2022/08/07 07:01:49;;;;;;;7.05;5.22;;;15.70;99.90;;;;;;5013759;28;20049;-60
2022/08/07 07:04:15;;;;;;;5.35;4.70;;;15.80;99.90;;;;;;5014199;28;20057;-61
2022/08/07 07:06:43;;;;;;;5.40;4.38;;;16.00;99.90;;;;;;5030792;28;20037;-61
2022/08/07 07:09:26;;;;;;;5.53;4.18;;;16.10;99.90;;;;;;5029477;28;20070;-60
2022/08/07 07:12:26;;;;;;;6.55;3.25;;;16.20;99.90;;;;;;5012945;28;20130;-61
2022/08/07 07:15:03;;;;;;;4.65;3.33;;;16.30;99.90;;;;;;5013362;28;20049;-60
2022/08/07 07:17:48;;;;;;;8.68;3.35;;;16.50;99.90;;;;;;5030791;28;20487;-61
2022/08/07 07:20:18;;;;;;;8.32;3.25;;;16.60;99.90;;;;;;5014469;28;20080;-61
2022/08/07 07:22:45;;;;;;;4.65;3.17;;;16.70;99.90;;;;;;5030241;28;20514;-60
2022/08/07 07:25:14;;;;;;;10.23;2.97;;;16.80;99.90;;;;;;5030411;28;20057;-60
2022/08/07 07:27:48;;;;;;;5.30;2.80;;;16.90;99.90;;;;;;5010855;28;20076;-61
2022/08/07 07:30:14;;;;;;;4.68;3.08;;;17.00;99.60;;;;;;5030904;28;20053;-60
2022/08/07 07:32:42;;;;;;;3.45;2.65;;;17.20;99.40;;;;;;5031678;28;20776;-61
2022/08/07 07:35:10;;;;;;;5.88;3.20;;;17.30;99.10;;;;;;5015120;28;20088;-61
2022/08/07 07:37:40;;;;;;;4.60;2.92;;;17.40;98.80;;;;;;5032843;28;20525;-60
2022/08/07 07:40:11;;;;;;;3.85;2.72;;;17.50;98.70;;;;;;5022469;28;20064;-61
2022/08/07 07:42:38;;;;;;;4.38;3.80;;;17.60;98.30;;;;;;5030741;28;20051;-61
2022/08/07 07:45:05;;;;;;;5.80;3.58;;;17.80;97.90;;;;;;5031791;28;20179;-61
2022/08/07 07:47:35;;;;;;;6.15;4.13;;;17.90;98.00;;;;;;5021202;28;20059;-61
2022/08/07 07:50:02;;;;;;;5.22;3.88;;;18.00;97.30;;;;;;5025094;28;20593;-61
2022/08/07 07:52:29;;;;;;;6.32;4.13;;;18.00;97.00;;;;;;5044012;28;20483;-61
2022/08/07 07:54:56;;;;;;;7.43;4.30;;;18.20;97.00;;;;;;5035525;28;20045;-61
2022/08/07 07:57:24;;;;;;;7.22;4.30;;;18.30;96.80;;;;;;5032844;28;20049;-61
2022/08/07 07:59:50;;;;;;;6.97;4.00;;;18.40;96.40;;;;;;5048525;28;20479;-61
2022/08/07 08:02:19;;;;;;;5.25;4.30;;;18.50;96.20;;;;;;5052272;28;20060;-61
2022/08/07 08:04:45;;;;;;;6.13;3.97;;;18.60;96.00;;;;;;5031654;28;20056;-60
2022/08/07 08:07:12;;;;;;;5.18;4.22;;;18.70;95.50;;;;;;5051225;28;20403;-61
2022/08/07 08:09:40;;;;;;;5.97;4.18;;;18.80;95.30;;;;;;5032216;28;20051;-61
2022/08/07 08:12:06;;;;;;;7.75;4.20;;;18.90;95.00;;;;;;5031986;28;20048;-60
2022/08/07 08:14:33;;;;;;;5.30;4.55;;;19.00;94.70;;;;;;5049096;28;20082;-60
2022/08/07 08:17:01;;;;;;;5.18;4.05;;;19.10;94.50;;;;;;5025924;28;20157;-61
2022/08/07 08:19:29;;;;;;;5.50;4.00;;;19.20;94.40;;;;;;5031392;28;20048;-61
2022/08/07 08:27:33;;;;;;;6.20;4.47;;;19.50;93.40;;;;;;5049452;28;20048;-61
2022/08/07 08:30:11;;;;;;;6.72;4.13;;;19.70;93.20;;;;;;5048323;28;20040;-61
2022/08/07 08:32:43;;;;;;;4.55;3.80;;;19.80;92.90;;;;;;5048597;28;20108;-61
2022/08/07 08:35:13;;;;;;;7.53;4.60;;;19.90;92.60;;;;;;5030703;28;20594;-61
2022/08/07 08:37:41;;;;;;;6.57;4.32;;;20.00;92.40;;;;;;5050146;28;20128;-61
2022/08/07 08:40:13;;;;;;;6.72;4.50;;;20.20;92.40;;;;;;5033227;28;20128;-61
2022/08/07 08:42:57;;;;;;;6.25;3.80;;;20.30;92.20;;;;;;5041089;28;20053;-61
2022/08/07 08:45:52;;;;;;;5.63;3.92;;;20.40;91.80;;;;;;5050187;28;20048;-61
2022/08/07 08:48:41;;;;;;;7.70;4.07;;;20.60;91.20;;;;;;5048109;28;20470;-62
2022/08/07 08:51:31;;;;;;;6.53;4.03;;;20.70;91.10;;;;;;5046892;28;20052;-61
2022/08/07 08:54:15;;;;;;;5.22;3.97;;;20.60;91.00;;;;;;5049634;28;20292;-61
2022/08/07 08:56:48;;;;;;;5.50;3.88;;;20.40;90.10;;;;;;5049940;28;20045;-61
2022/08/07 08:59:28;;;;;;;3.83;3.42;;;20.20;89.80;;;;;;5048324;28;20052;-61
2022/08/07 09:02:32;;;;;;;5.72;3.70;;;20.20;89.90;;;;;;5049630;28;20553;-61
2022/08/07 09:05:38;;;;;;;4.78;3.90;;;20.20;89.40;;;;;;5019929;28;20108;-61
2022/08/07 09:08:35;;;;;;;3.65;3.35;;;20.10;89.70;;;;;;5015902;28;20064;-61
2022/08/07 09:11:16;;;;;;;4.50;3.22;;;20.10;89.20;;;;;;5049827;28;20063;-61
2022/08/07 09:13:42;;;;;;;5.65;3.38;;;20.20;88.20;;;;;;5050693;28;20040;-61
2022/08/07 09:16:21;;;;;;;3.88;3.25;;;20.20;88.00;;;;;;5047362;28;20055;-61
2022/08/07 09:18:53;;;;;;;5.53;3.00;;;20.30;87.70;;;;;;5031359;28;20116;-61
2022/08/07 09:21:52;;;;;;;5.80;3.17;;;20.50;86.50;;;;;;5046996;28;20043;-61
2022/08/07 09:25:00;;;;;;;3.60;3.00;;;20.70;86.40;;;;;;5049539;28;20299;-61
2022/08/07 09:27:43;;;;;;;5.88;3.40;;;20.90;86.20;;;;;;5040815;28;20048;-61
2022/08/07 09:30:10;;;;;;;7.07;3.42;;;21.20;84.70;;;;;;5030205;28;20436;-61
2022/08/07 09:32:55;;;;;;;4.13;3.00;;;21.30;83.50;;;;;;5047765;28;20517;-61
2022/08/07 09:36:02;;;;;;;7.25;3.22;;;21.40;82.60;;;;;;5031022;28;20495;-61
2022/08/07 09:38:38;;;;;;;5.95;2.90;;;21.60;82.10;;;;;;5031231;28;20041;-61
2022/08/07 09:41:36;;;;;;;5.00;2.63;;;21.80;80.20;;;;;;5047329;28;20140;-61
2022/08/07 09:44:29;;;;;;;3.08;2.50;;;22.10;80.20;;;;;;5031720;28;20048;-61
2022/08/07 09:47:27;;;;;;;3.75;2.60;;;22.40;79.90;;;;;;5047311;28;20073;-61
2022/08/07 09:50:03;;;;;;;9.48;2.97;;;22.50;78.50;;;;;;4992829;28;20045;-62
2022/08/07 09:52:41;;;;;;;4.55;2.95;;;22.60;78.00;;;;;;5048861;28;20037;-62
2022/08/07 09:55:28;;;;;;;4.43;2.67;;;22.90;77.20;;;;;;5027880;28;20553;-62
2022/08/07 09:58:26;;;;;;;7.40;3.03;;;23.00;77.80;;;;;;5046616;28;20041;-62
2022/08/07 10:01:08;;;;;;;3.90;2.88;;;23.20;77.20;;;;;;5039121;28;20045;-62
2022/08/07 10:03:58;;;;;;;3.03;2.72;;;23.40;76.20;;;;;;5048058;28;20094;-61
2022/08/07 10:06:35;;;;;;;2.63;2.42;;;23.50;73.50;;;;;;5047851;28;20554;-62
2022/08/07 10:09:13;;;;;;;3.33;2.13;;;23.60;72.60;;;;;;5047412;28;20079;-62
2022/08/07 10:12:05;;;;;;;2.97;2.00;;;23.60;69.80;;;;;;5050490;28;20475;-62
2022/08/07 10:15:08;;;;;;;5.15;2.45;;;23.60;69.30;;;;;;5032549;28;20055;-62
2022/08/07 10:18:14;;;;;;;3.35;2.60;;;23.80;70.60;;;;;;5049409;28;20565;-62
2022/08/07 10:21:01;;;;;;;2.70;2.40;;;24.00;71.00;;;;;;5047625;28;20048;-62
2022/08/07 10:24:03;;;;;;;3.70;2.20;;;24.10;70.30;;;;;;5047486;28;20045;-62
2022/08/07 10:27:04;;;;;;;3.00;2.30;;;24.30;69.70;;;;;;4966236;28;20052;-62
2022/08/07 10:29:55;;;;;;;4.35;2.40;;;24.40;68.00;;;;;;5024255;28;20045;-62
2022/08/07 10:32:43;;;;;;;5.60;1.95;;;24.50;67.80;;;;;;5029844;28;21611;-62
2022/08/07 10:35:25;;;;;;;1.95;1.70;;;24.60;67.50;;;;;;5050779;28;20098;-62
2022/08/07 10:38:19;;;;;;;3.53;2.40;;;24.80;65.80;;;;;;5029400;28;20098;-62
2022/08/07 10:41:08;;;;;;;2.20;2.00;;;25.00;66.10;;;;;;5040057;28;20061;-62
2022/08/07 10:43:52;;;;;;;5.35;2.03;;;25.10;66.70;;;;;;5050068;28;20045;-62
2022/08/07 10:46:28;;;;;;;2.15;1.95;;;25.20;64.50;;;;;;5032186;28;20044;-62
2022/08/07 10:49:36;;;;;;;3.60;1.75;;;25.40;64.60;;;;;;5051445;28;20640;-62
2022/08/07 10:52:11;;;;;;;2.88;2.00;;;25.50;64.40;;;;;;5016012;28;20053;-62
2022/08/07 10:54:55;;;;;;;3.58;2.05;;;25.60;64.00;;;;;;5035433;28;20467;-62
2022/08/07 10:57:33;;;;;;;3.03;2.28;;;25.80;64.20;;;;;;5054598;28;20351;-62
2022/08/07 11:00:08;;;;;;;2.78;1.98;;;25.90;63.40;;;;;;5050620;28;20041;-62
2022/08/07 11:02:38;;;;;;;6.32;2.20;;;26.10;61.40;;;;;;5054868;28;20127;-61
2022/08/07 11:05:23;;;;;;;4.70;1.98;;;26.10;60.80;;;;;;5050144;28;20087;-62
2022/08/07 11:08:07;;;;;;;2.13;1.80;;;26.10;61.10;;;;;;5053680;28;20041;-62
2022/08/07 11:10:46;;;;;;;3.53;1.98;;;26.20;60.40;;;;;;5034360;28;20060;-62
2022/08/07 11:13:29;;;;;;;3.58;1.80;;;26.10;60.10;;;;;;5052178;28;20427;-62
2022/08/07 11:16:01;;;;;;;3.83;2.00;;;26.20;59.90;;;;;;5038606;28;20056;-62
2022/08/07 11:18:48;;;;;;;2.78;2.22;;;26.10;60.40;;;;;;5033825;28;20202;-62
2022/08/07 11:21:20;;;;;;;4.13;2.30;;;26.20;62.40;;;;;;5049959;28;20294;-62
2022/08/07 11:24:04;;;;;;;4.25;2.40;;;26.40;61.40;;;;;;5049636;28;20127;-63
2022/08/07 11:26:48;;;;;;;4.05;2.30;;;26.60;62.20;;;;;;5050656;28;20036;-62
2022/08/07 11:29:38;;;;;;;2.55;1.98;;;26.50;61.80;;;;;;5049792;28;20404;-62
2022/08/07 11:32:15;;;;;;;2.35;1.70;;;26.20;60.60;;;;;;5052460;28;20080;-62
2022/08/07 11:34:52;;;;;;;2.60;1.90;;;25.90;60.90;;;;;;5033176;28;20044;-62
2022/08/07 11:37:33;;;;;;;2.97;1.90;;;25.80;60.60;;;;;;5051589;28;20044;-63
2022/08/07 11:40:08;;;;;;;2.20;1.90;;;26.00;60.30;;;;;;5031047;28;20056;-62
2022/08/07 11:42:56;;;;;;;2.65;1.67;;;26.20;60.50;;;;;;5042487;28;20159;-63
2022/08/07 11:45:41;;;;;;;3.33;1.90;;;26.20;59.90;;;;;;5051554;28;20191;-63
2022/08/07 11:48:10;;;;;;;2.55;1.80;;;26.50;59.90;;;;;;5049784;28;20145;-62
2022/08/07 11:51:13;;;;;;;2.20;1.90;;;26.40;59.70;;;;;;5030648;28;20054;-62
2022/08/07 11:53:57;;;;;;;2.10;1.73;;;26.30;59.40;;;;;;5052205;28;20043;-63
2022/08/07 11:56:33;;;;;;;3.13;2.13;;;26.00;59.30;;;;;;5033575;28;20047;-62
2022/08/07 11:59:25;;;;;;;2.08;1.77;;;25.70;60.60;;;;;;5051167;28;20462;-62
2022/08/07 12:02:15;;;;;;;3.55;2.00;;;25.50;60.40;;;;;;5033738;28;20525;-62
2022/08/07 12:05:04;;;;;;;3.55;2.15;;;25.30;60.40;;;;;;5049582;28;20559;-62
2022/08/07 12:07:43;;;;;;;6.60;2.00;;;25.40;61.40;;;;;;5050965;28;20068;-62
2022/08/07 12:10:22;;;;;;;2.65;1.60;;;25.70;60.70;;;;;;5031923;28;20049;-62
2022/08/07 12:13:39;;;;;;;3.75;1.75;;;26.10;60.70;;;;;;5051396;28;20071;-62
2022/08/07 12:16:29;;;;;;;2.33;1.70;;;26.70;60.00;;;;;;5017681;28;20064;-62
2022/08/07 12:19:15;;;;;;;2.08;1.60;;;26.90;59.30;;;;;;5034559;28;20133;-63
2022/08/07 12:22:01;;;;;;;2.10;1.60;;;26.90;58.80;;;;;;5052581;28;20513;-62
2022/08/07 12:27:52;;;;;;;3.22;2.20;;;26.50;57.50;;;;;;5031211;28;20044;-63
2022/08/07 12:30:22;;;;;;;5.82;2.10;;;26.20;59.20;;;;;;5031550;28;20660;-62
2022/08/07 12:33:04;;;;;;;3.53;2.10;;;25.70;60.10;;;;;;5031924;28;20063;-63
2022/08/07 12:35:32;;;;;;;4.43;2.40;;;25.40;61.50;;;;;;5015265;28;20044;-62
2022/08/07 12:37:59;;;;;;;4.10;2.28;;;25.00;62.20;;;;;;5041746;28;20117;-62
2022/08/07 12:40:28;;;;;;;2.85;1.98;;;24.90;62.80;;;;;;5032259;28;20048;-62
2022/08/07 12:42:58;;;;;;;3.40;2.25;;;24.70;63.30;;;;;;5034684;28;20129;-62
2022/08/07 12:45:36;;;;;;;3.67;2.10;;;24.60;63.40;;;;;;5046924;28;20160;-62
2022/08/07 12:48:12;;;;;;;4.65;2.25;;;24.40;63.80;;;;;;5048702;28;20044;-62
2022/08/07 12:50:53;;;;;;;8.23;2.50;;;24.40;64.00;;;;;;5026884;28;20051;-62
2022/08/07 12:53:40;;;;;;;3.83;1.95;;;24.30;64.20;;;;;;5048354;28;20049;-63
2022/08/07 12:56:15;;;;;;;5.95;2.50;;;24.20;64.40;;;;;;5034140;28;20048;-63
2022/08/07 12:58:45;;;;;;;2.90;2.03;;;24.20;65.10;;;;;;5032570;28;20041;-62
2022/08/07 13:01:27;;;;;;;3.58;2.15;;;24.20;65.40;;;;;;5031090;28;20071;-62
2022/08/07 13:03:53;;;;;;;;;;;24.30;64.80;;;;;;5048425;28;20506;-62
2022/08/07 13:06:37;;;;;;;3.05;2.00;;;24.30;63.90;;;;;;5030906;28;20062;-62
2022/08/07 13:09:29;;;;;;;2.17;1.98;;;24.30;64.10;;;;;;5031233;28;20044;-62
2022/08/07 13:12:10;;;;;;;4.22;2.20;;;24.80;64.70;;;;;;5050628;28;20104;-62
2022/08/07 13:15:01;;;;;;;2.60;2.00;;;25.40;63.10;;;;;;5050567;28;20051;-62
2022/08/07 13:17:47;;;;;;;2.85;2.05;;;26.10;62.30;;;;;;5029223;28;20048;-62
2022/08/07 13:20:24;;;;;;;5.53;1.80;;;26.40;59.90;;;;;;5052098;28;20131;-62
2022/08/07 13:23:12;;;;;;;4.30;1.80;;;26.30;59.20;;;;;;5050999;28;20426;-62
2022/08/07 13:25:55;;;;;;;4.28;1.90;;;26.20;59.30;;;;;;5048379;28;20490;-62
2022/08/07 13:28:31;;;;;;;7.15;2.10;;;26.00;60.30;;;;;;5047995;28;20526;-62